CST,Max TemperatureF,Mean TemperatureF,Min TemperatureF,Max Dew PointF,MeanDew PointF,Min DewpointF,Max Humidity, Mean Humidity, Min Humidity, Max Sea Level PressureIn, Mean Sea Level PressureIn, Min Sea Level PressureIn, Max VisibilityMiles, Mean VisibilityMiles, Min VisibilityMiles, Max Wind SpeedMPH, Mean Wind SpeedMPH, Max Gust SpeedMPH,PrecipitationIn, CloudCover, Events, WindDirDegrees
2014-1-1,3,0,-2,-2,-4,-8,92,83,72,30.31,30.23,30.10,10,8,2,9,5,21,0.22,7,Snow,57
2014-1-2,26,4,-16,21,0,-20,93,84,71,30.28,30.05,29.61,10,10,10,15,4,,0.00,4,,123
2014-1-3,41,26,10,34,24,5,93,81,70,29.88,29.44,29.19,10,9,1,32,16,39,1.64,6,Rain-Snow,268
2014-1-4,8,0,-9,3,-11,-17,85,68,55,30.26,30.14,29.87,10,10,10,22,13,28,0.00,1,Rain,311
2014-1-5,-7,-14,-20,-15,-24,-31,76,64,53,30.56,30.45,30.25,10,8,2,29,17,38,0.00,4,Rain-Snow,302
2014-1-6,1,-10,-22,-2,-17,-29,85,70,55,30.43,30.22,29.88,10,9,3,14,9,,0.05,3,Snow,260
2014-1-7,5,2,0,0,-2,-6,92,81,72,30.16,30.03,29.86,10,10,7,8,5,,0.02,8,Snow,12
2014-1-8,21,8,-4,16,2,-9,86,79,71,30.17,30.01,29.72,10,10,10,17,7,20,0.00,6,,121
2014-1-9,35,26,17,27,21,14,93,77,60,29.71,29.56,29.48,10,10,10,14,8,16,0.00,0,,228
2014-1-10,33,26,19,27,19,14,93,73,56,29.61,29.48,29.42,10,10,10,17,10,28,0.00,1,,249
2014-1-11,41,26,10,34,20,9,93,76,60,29.70,29.47,29.16,10,10,6,18,7,29,0.01,0,Rain,208
2014-1-12,39,31,23,32,25,18,93,74,61,29.68,29.39,29.21,10,10,6,21,13,30,0.00,2,Rain-Snow,258
2014-1-13,37,24,12,32,22,10,100,82,70,29.89,29.57,29.39,10,10,1,30,8,41,0.52,3,Rain-Snow,270
2014-1-14,23,18,14,18,13,7,93,76,63,30.25,30.14,29.90,10,10,10,20,11,28,0.00,3,,311
2014-1-15,41,31,21,30,26,18,87,71,60,30.02,29.70,29.57,10,10,10,40,15,55,0.00,3,,272
2014-1-16,32,24,15,23,15,7,93,74,60,30.23,30.05,29.75,10,10,4,38,21,56,0.01,1,Rain-Snow,310
2014-1-17,39,28,17,28,23,14,93,79,65,30.10,29.85,29.71,10,10,10,23,10,30,0.00,1,,252
2014-1-18,37,34,30,28,27,25,87,77,65,30.05,29.88,29.65,10,10,10,23,16,33,0.00,3,,276
2014-1-19,39,36,32,28,26,25,81,70,60,29.83,29.68,29.54,10,10,10,23,14,30,0.00,1,,269
2014-1-20,32,16,1,25,4,-4,85,74,66,30.44,30.23,29.83,10,10,3,33,17,46,0.06,3,Rain-Snow,316
2014-1-21,26,16,6,21,14,0,93,80,72,30.24,30.06,29.89,10,10,10,25,11,32,0.00,6,Rain,283
2014-1-22,23,8,-7,18,-4,-13,86,73,56,30.61,30.42,30.08,10,10,5,29,13,36,0.03,2,Rain-Snow,25
2014-1-23,32,12,-7,23,3,-13,85,74,64,30.62,30.32,29.89,10,10,9,21,7,30,0.00,1,Snow,238
2014-1-24,41,36,30,32,30,25,93,80,70,29.94,29.85,29.75,10,10,5,28,16,37,0.01,7,Rain,294
2014-1-25,44,35,26,34,30,25,100,84,61,30.02,29.75,29.47,10,10,4,28,12,40,0.00,6,Rain-Snow,296
2014-1-26,35,15,-5,32,1,-15,93,69,55,30.36,29.97,29.46,10,9,0,41,21,60,1.14,5,Rain-Snow,323
2014-1-27,0,-4,-9,-11,-14,-17,77,66,55,30.39,30.36,30.33,10,10,10,17,12,25,0.00,0,,320
2014-1-28,15,3,-9,0,-7,-17,84,68,49,30.34,30.11,29.74,10,10,7,16,8,18,0.00,0,,249
2014-1-29,24,15,6,14,9,0,79,70,63,29.73,29.57,29.51,10,10,5,20,8,25,0.00,2,Snow,312
2014-1-30,8,4,0,3,-4,-8,85,74,61,29.94,29.85,29.62,10,9,3,17,11,24,0.00,5,Rain-Snow,316
2014-1-31,19,8,-4,7,-2,-9,85,70,58,29.92,29.78,29.64,10,10,6,26,11,34,0.01,2,Rain-Snow,258